sensor_id;sensor_type;location;lat;lon;timestamp;P1;durP1;ratioP1;P2;durP2;ratioP2
14686;SDS011;7431;49.440;11.084;2023-12-20T00:00:47;4.47;;;3.10;;
14686;SDS011;7431;49.440;11.084;2023-12-20T00:03:13;3.23;;;2.90;;
14686;SDS011;7431;49.440;11.084;2023-12-20T00:05:39;3.80;;;2.90;;
14686;SDS011;7431;49.440;11.084;2023-12-20T00:08:06;4.07;;;3.00;;
14686;SDS011;7431;49.440;11.084;2023-12-20T00:10:33;3.60;;;2.43;;
14686;SDS011;7431;49.440;11.084;2023-12-20T00:12:59;3.70;;;2.80;;
14686;SDS011;7431;49.440;11.084;2023-12-20T00:15:24;2.80;;;2.43;;
14686;SDS011;7431;49.440;11.084;2023-12-20T00:17:50;4.37;;;3.13;;
14686;SDS011;7431;49.440;11.084;2023-12-20T00:20:15;5.07;;;3.10;;
14686;SDS011;7431;49.440;11.084;2023-12-20T00:22:41;3.83;;;2.87;;
14686;SDS011;7431;49.440;11.084;2023-12-20T00:25:06;3.77;;;3.00;;
14686;SDS011;7431;49.440;11.084;2023-12-20T00:27:32;4.53;;;3.60;;
14686;SDS011;7431;49.440;11.084;2023-12-20T00:29:58;3.40;;;2.50;;
14686;SDS011;7431;49.440;11.084;2023-12-20T00:32:23;3.90;;;2.77;;
14686;SDS011;7431;49.440;11.084;2023-12-20T00:34:49;5.13;;;3.23;;
14686;SDS011;7431;49.440;11.084;2023-12-20T00:37:15;5.00;;;3.53;;
14686;SDS011;7431;49.440;11.084;2023-12-20T00:39:41;3.67;;;2.93;;
14686;SDS011;7431;49.440;11.084;2023-12-20T00:42:07;4.33;;;2.37;;
14686;SDS011;7431;49.440;11.084;2023-12-20T00:44:32;3.03;;;2.70;;
14686;SDS011;7431;49.440;11.084;2023-12-20T00:46:58;3.43;;;2.70;;
14686;SDS011;7431;49.440;11.084;2023-12-20T00:49:23;3.73;;;3.00;;
14686;SDS011;7431;49.440;11.084;2023-12-20T00:51:49;4.77;;;2.70;;
14686;SDS011;7431;49.440;11.084;2023-12-20T00:54:15;4.43;;;3.10;;
14686;SDS011;7431;49.440;11.084;2023-12-20T00:56:43;4.23;;;3.23;;
14686;SDS011;7431;49.440;11.084;2023-12-20T00:59:09;5.27;;;3.00;;
14686;SDS011;7431;49.440;11.084;2023-12-20T01:01:34;3.03;;;2.73;;
14686;SDS011;7431;49.440;11.084;2023-12-20T01:04:00;3.57;;;2.40;;
14686;SDS011;7431;49.440;11.084;2023-12-20T01:06:25;3.43;;;2.90;;
14686;SDS011;7431;49.440;11.084;2023-12-20T01:08:51;3.80;;;2.47;;
14686;SDS011;7431;49.440;11.084;2023-12-20T01:11:17;3.73;;;2.97;;
14686;SDS011;7431;49.440;11.084;2023-12-20T01:13:42;4.37;;;3.20;;
14686;SDS011;7431;49.440;11.084;2023-12-20T01:16:10;3.57;;;2.70;;
14686;SDS011;7431;49.440;11.084;2023-12-20T01:18:37;4.03;;;2.50;;
14686;SDS011;7431;49.440;11.084;2023-12-20T01:21:03;2.83;;;2.53;;
14686;SDS011;7431;49.440;11.084;2023-12-20T01:23:29;2.57;;;2.37;;
14686;SDS011;7431;49.440;11.084;2023-12-20T01:25:55;4.63;;;2.53;;
14686;SDS011;7431;49.440;11.084;2023-12-20T01:28:21;4.30;;;2.33;;
14686;SDS011;7431;49.440;11.084;2023-12-20T01:30:47;5.00;;;2.47;;
14686;SDS011;7431;49.440;11.084;2023-12-20T01:33:13;4.23;;;2.50;;
14686;SDS011;7431;49.440;11.084;2023-12-20T01:35:38;2.60;;;2.03;;
14686;SDS011;7431;49.440;11.084;2023-12-20T01:38:04;2.00;;;1.70;;
14686;SDS011;7431;49.440;11.084;2023-12-20T01:40:29;1.67;;;1.57;;
14686;SDS011;7431;49.440;11.084;2023-12-20T01:42:58;2.33;;;1.60;;
14686;SDS011;7431;49.440;11.084;2023-12-20T01:45:25;1.87;;;1.77;;
14686;SDS011;7431;49.440;11.084;2023-12-20T01:47:50;2.20;;;1.80;;
14686;SDS011;7431;49.440;11.084;2023-12-20T01:50:16;1.93;;;1.40;;
14686;SDS011;7431;49.440;11.084;2023-12-20T01:52:42;2.60;;;1.50;;
14686;SDS011;7431;49.440;11.084;2023-12-20T01:55:09;1.80;;;1.40;;
14686;SDS011;7431;49.440;11.084;2023-12-20T01:57:39;1.30;;;1.20;;
14686;SDS011;7431;49.440;11.084;2023-12-20T02:00:06;1.30;;;1.20;;
14686;SDS011;7431;49.440;11.084;2023-12-20T02:02:36;1.43;;;1.33;;
14686;SDS011;7431;49.440;11.084;2023-12-20T02:05:04;0.90;;;0.90;;
14686;SDS011;7431;49.440;11.084;2023-12-20T02:07:30;1.07;;;1.00;;
14686;SDS011;7431;49.440;11.084;2023-12-20T02:09:56;1.40;;;1.10;;
14686;SDS011;7431;49.440;11.084;2023-12-20T02:12:22;1.17;;;1.03;;
14686;SDS011;7431;49.440;11.084;2023-12-20T02:14:48;1.20;;;1.10;;
14686;SDS011;7431;49.440;11.084;2023-12-20T02:17:14;1.00;;;1.00;;
14686;SDS011;7431;49.440;11.084;2023-12-20T02:19:40;0.80;;;0.80;;
14686;SDS011;7431;49.440;11.084;2023-12-20T02:22:12;0.83;;;0.83;;
14686;SDS011;7431;49.440;11.084;2023-12-20T02:24:38;0.70;;;0.70;;
14686;SDS011;7431;49.440;11.084;2023-12-20T02:27:05;0.70;;;0.70;;
14686;SDS011;7431;49.440;11.084;2023-12-20T02:29:32;0.63;;;0.63;;
14686;SDS011;7431;49.440;11.084;2023-12-20T02:31:58;0.80;;;0.80;;
14686;SDS011;7431;49.440;11.084;2023-12-20T02:34:24;0.83;;;0.80;;
14686;SDS011;7431;49.440;11.084;2023-12-20T02:36:50;0.90;;;0.90;;
14686;SDS011;7431;49.440;11.084;2023-12-20T02:39:15;0.63;;;0.63;;
14686;SDS011;7431;49.440;11.084;2023-12-20T02:41:41;0.73;;;0.73;;
14686;SDS011;7431;49.440;11.084;2023-12-20T02:44:06;0.50;;;0.50;;
14686;SDS011;7431;49.440;11.084;2023-12-20T02:46:32;0.50;;;0.50;;
14686;SDS011;7431;49.440;11.084;2023-12-20T02:48:57;0.57;;;0.57;;
14686;SDS011;7431;49.440;11.084;2023-12-20T02:51:23;0.60;;;0.60;;
14686;SDS011;7431;49.440;11.084;2023-12-20T02:53:49;0.97;;;0.87;;
14686;SDS011;7431;49.440;11.084;2023-12-20T02:56:14;0.80;;;0.80;;
14686;SDS011;7431;49.440;11.084;2023-12-20T02:58:40;0.70;;;0.70;;
14686;SDS011;7431;49.440;11.084;2023-12-20T03:01:05;0.70;;;0.70;;
14686;SDS011;7431;49.440;11.084;2023-12-20T03:03:31;1.80;;;0.63;;
14686;SDS011;7431;49.440;11.084;2023-12-20T03:05:57;0.70;;;0.70;;
14686;SDS011;7431;49.440;11.084;2023-12-20T03:08:23;0.57;;;0.57;;
14686;SDS011;7431;49.440;11.084;2023-12-20T03:10:48;0.70;;;0.63;;
14686;SDS011;7431;49.440;11.084;2023-12-20T03:13:14;0.60;;;0.60;;
14686;SDS011;7431;49.440;11.084;2023-12-20T03:15:39;0.73;;;0.63;;
14686;SDS011;7431;49.440;11.084;2023-12-20T03:18:05;0.60;;;0.60;;
14686;SDS011;7431;49.440;11.084;2023-12-20T03:20:31;0.73;;;0.70;;
14686;SDS011;7431;49.440;11.084;2023-12-20T03:23:00;0.70;;;0.70;;
14686;SDS011;7431;49.440;11.084;2023-12-20T03:25:25;0.70;;;0.70;;
14686;SDS011;7431;49.440;11.084;2023-12-20T03:27:52;1.10;;;0.67;;
14686;SDS011;7431;49.440;11.084;2023-12-20T03:30:18;1.63;;;0.63;;
14686;SDS011;7431;49.440;11.084;2023-12-20T03:32:44;2.00;;;0.70;;
14686;SDS011;7431;49.440;11.084;2023-12-20T03:35:09;0.60;;;0.60;;
14686;SDS011;7431;49.440;11.084;2023-12-20T03:37:35;0.50;;;0.50;;
14686;SDS011;7431;49.440;11.084;2023-12-20T03:40:01;0.53;;;0.50;;
14686;SDS011;7431;49.440;11.084;2023-12-20T03:42:26;0.60;;;0.60;;
14686;SDS011;7431;49.440;11.084;2023-12-20T03:44:52;0.57;;;0.57;;
14686;SDS011;7431;49.440;11.084;2023-12-20T03:47:17;0.57;;;0.57;;
14686;SDS011;7431;49.440;11.084;2023-12-20T03:49:43;1.10;;;0.80;;
14686;SDS011;7431;49.440;11.084;2023-12-20T03:52:08;0.60;;;0.60;;
14686;SDS011;7431;49.440;11.084;2023-12-20T03:54:37;0.80;;;0.80;;
14686;SDS011;7431;49.440;11.084;2023-12-20T03:57:03;1.00;;;0.90;;
14686;SDS011;7431;49.440;11.084;2023-12-20T03:59:29;0.70;;;0.70;;
14686;SDS011;7431;49.440;11.084;2023-12-20T04:01:55;0.63;;;0.63;;
14686;SDS011;7431;49.440;11.084;2023-12-20T04:04:20;0.87;;;0.80;;
14686;SDS011;7431;49.440;11.084;2023-12-20T04:06:46;0.70;;;0.70;;
14686;SDS011;7431;49.440;11.084;2023-12-20T04:09:11;0.83;;;0.73;;
14686;SDS011;7431;49.440;11.084;2023-12-20T04:11:37;0.97;;;0.90;;
14686;SDS011;7431;49.440;11.084;2023-12-20T04:14:02;0.90;;;0.90;;
14686;SDS011;7431;49.440;11.084;2023-12-20T04:16:30;0.80;;;0.80;;
14686;SDS011;7431;49.440;11.084;2023-12-20T04:18:55;1.23;;;1.13;;
14686;SDS011;7431;49.440;11.084;2023-12-20T04:21:21;0.90;;;0.90;;
14686;SDS011;7431;49.440;11.084;2023-12-20T04:23:46;1.10;;;1.00;;
14686;SDS011;7431;49.440;11.084;2023-12-20T04:26:12;2.03;;;0.97;;
14686;SDS011;7431;49.440;11.084;2023-12-20T04:28:38;0.80;;;0.80;;
14686;SDS011;7431;49.440;11.084;2023-12-20T04:31:03;3.03;;;0.83;;
14686;SDS011;7431;49.440;11.084;2023-12-20T04:33:29;0.80;;;0.80;;
14686;SDS011;7431;49.440;11.084;2023-12-20T04:35:54;1.23;;;0.80;;
14686;SDS011;7431;49.440;11.084;2023-12-20T04:38:20;1.23;;;1.13;;
14686;SDS011;7431;49.440;11.084;2023-12-20T04:40:45;1.13;;;1.10;;
14686;SDS011;7431;49.440;11.084;2023-12-20T04:43:11;1.33;;;1.23;;
14686;SDS011;7431;49.440;11.084;2023-12-20T04:45:37;0.90;;;0.90;;
14686;SDS011;7431;49.440;11.084;2023-12-20T04:48:02;1.60;;;1.37;;
14686;SDS011;7431;49.440;11.084;2023-12-20T04:50:29;1.10;;;1.00;;
14686;SDS011;7431;49.440;11.084;2023-12-20T04:52:54;3.30;;;1.20;;
14686;SDS011;7431;49.440;11.084;2023-12-20T04:55:20;1.50;;;1.30;;
14686;SDS011;7431;49.440;11.084;2023-12-20T04:57:45;2.37;;;1.23;;
14686;SDS011;7431;49.440;11.084;2023-12-20T05:00:11;1.27;;;1.10;;
14686;SDS011;7431;49.440;11.084;2023-12-20T05:02:37;1.30;;;1.20;;
14686;SDS011;7431;49.440;11.084;2023-12-20T05:05:03;1.27;;;1.17;;
14686;SDS011;7431;49.440;11.084;2023-12-20T05:07:28;1.30;;;1.20;;
14686;SDS011;7431;49.440;11.084;2023-12-20T05:09:54;1.20;;;1.10;;
14686;SDS011;7431;49.440;11.084;2023-12-20T05:12:19;1.00;;;1.00;;
14686;SDS011;7431;49.440;11.084;2023-12-20T05:14:45;1.30;;;1.20;;
14686;SDS011;7431;49.440;11.084;2023-12-20T05:17:11;1.80;;;1.20;;
14686;SDS011;7431;49.440;11.084;2023-12-20T05:19:37;0.80;;;0.80;;
14686;SDS011;7431;49.440;11.084;2023-12-20T05:22:02;2.77;;;1.77;;
14686;SDS011;7431;49.440;11.084;2023-12-20T05:24:28;1.50;;;1.40;;
14686;SDS011;7431;49.440;11.084;2023-12-20T05:26:54;1.30;;;1.20;;
14686;SDS011;7431;49.440;11.084;2023-12-20T05:29:19;1.23;;;1.13;;
14686;SDS011;7431;49.440;11.084;2023-12-20T05:31:45;1.40;;;1.30;;
14686;SDS011;7431;49.440;11.084;2023-12-20T05:34:11;1.10;;;1.00;;
14686;SDS011;7431;49.440;11.084;2023-12-20T05:36:36;1.33;;;1.17;;
14686;SDS011;7431;49.440;11.084;2023-12-20T05:39:03;1.40;;;1.30;;
14686;SDS011;7431;49.440;11.084;2023-12-20T05:41:29;1.30;;;1.20;;
14686;SDS011;7431;49.440;11.084;2023-12-20T05:43:55;1.17;;;1.03;;
14686;SDS011;7431;49.440;11.084;2023-12-20T05:46:23;1.00;;;1.00;;
14686;SDS011;7431;49.440;11.084;2023-12-20T05:48:48;1.33;;;1.23;;
14686;SDS011;7431;49.440;11.084;2023-12-20T05:51:14;1.80;;;1.17;;
14686;SDS011;7431;49.440;11.084;2023-12-20T05:53:40;1.33;;;1.17;;
14686;SDS011;7431;49.440;11.084;2023-12-20T05:56:05;0.97;;;0.90;;
14686;SDS011;7431;49.440;11.084;2023-12-20T05:58:32;0.90;;;0.90;;
14686;SDS011;7431;49.440;11.084;2023-12-20T06:00:58;1.73;;;1.30;;
14686;SDS011;7431;49.440;11.084;2023-12-20T06:03:23;1.17;;;1.03;;
14686;SDS011;7431;49.440;11.084;2023-12-20T06:05:49;1.90;;;1.53;;
14686;SDS011;7431;49.440;11.084;2023-12-20T06:08:15;1.03;;;0.93;;
14686;SDS011;7431;49.440;11.084;2023-12-20T06:10:41;1.10;;;1.00;;
14686;SDS011;7431;49.440;11.084;2023-12-20T06:13:06;1.00;;;1.00;;
14686;SDS011;7431;49.440;11.084;2023-12-20T06:15:32;1.23;;;1.13;;
14686;SDS011;7431;49.440;11.084;2023-12-20T06:17:58;1.00;;;1.00;;
14686;SDS011;7431;49.440;11.084;2023-12-20T06:20:24;1.73;;;1.37;;
14686;SDS011;7431;49.440;11.084;2023-12-20T06:22:53;3.20;;;2.40;;
14686;SDS011;7431;49.440;11.084;2023-12-20T06:25:18;1.67;;;1.57;;
14686;SDS011;7431;49.440;11.084;2023-12-20T06:27:44;1.50;;;1.40;;
14686;SDS011;7431;49.440;11.084;2023-12-20T06:30:09;1.20;;;1.20;;
14686;SDS011;7431;49.440;11.084;2023-12-20T06:32:35;1.83;;;1.50;;
14686;SDS011;7431;49.440;11.084;2023-12-20T06:35:01;4.33;;;2.93;;
14686;SDS011;7431;49.440;11.084;2023-12-20T06:37:26;4.03;;;2.87;;
14686;SDS011;7431;49.440;11.084;2023-12-20T06:39:52;13.53;;;6.93;;
14686;SDS011;7431;49.440;11.084;2023-12-20T06:42:18;5.90;;;4.17;;
14686;SDS011;7431;49.440;11.084;2023-12-20T06:44:43;31.57;;;14.57;;
14686;SDS011;7431;49.440;11.084;2023-12-20T06:47:09;9.70;;;6.97;;
14686;SDS011;7431;49.440;11.084;2023-12-20T06:49:34;5.47;;;2.83;;
14686;SDS011;7431;49.440;11.084;2023-12-20T06:52:03;2.70;;;1.90;;
14686;SDS011;7431;49.440;11.084;2023-12-20T06:54:46;2.80;;;2.10;;
14686;SDS011;7431;49.440;11.084;2023-12-20T06:57:21;2.00;;;1.73;;
14686;SDS011;7431;49.440;11.084;2023-12-20T06:59:46;1.50;;;1.40;;
14686;SDS011;7431;49.440;11.084;2023-12-20T07:02:12;2.20;;;1.90;;
14686;SDS011;7431;49.440;11.084;2023-12-20T07:04:41;1.43;;;1.33;;
14686;SDS011;7431;49.440;11.084;2023-12-20T07:07:07;1.90;;;1.80;;
14686;SDS011;7431;49.440;11.084;2023-12-20T07:09:33;1.57;;;1.47;;
14686;SDS011;7431;49.440;11.084;2023-12-20T07:11:58;2.03;;;1.80;;
14686;SDS011;7431;49.440;11.084;2023-12-20T07:14:24;1.97;;;1.80;;
14686;SDS011;7431;49.440;11.084;2023-12-20T07:16:50;1.73;;;1.63;;
14686;SDS011;7431;49.440;11.084;2023-12-20T07:19:18;1.70;;;1.60;;
14686;SDS011;7431;49.440;11.084;2023-12-20T07:21:44;1.63;;;1.53;;
14686;SDS011;7431;49.440;11.084;2023-12-20T07:24:09;1.60;;;1.50;;
14686;SDS011;7431;49.440;11.084;2023-12-20T07:26:35;1.87;;;1.77;;
14686;SDS011;7431;49.440;11.084;2023-12-20T07:29:02;1.80;;;1.70;;
14686;SDS011;7431;49.440;11.084;2023-12-20T07:31:29;1.97;;;1.80;;
14686;SDS011;7431;49.440;11.084;2023-12-20T07:33:55;1.73;;;1.63;;
14686;SDS011;7431;49.440;11.084;2023-12-20T07:36:21;2.77;;;1.80;;
14686;SDS011;7431;49.440;11.084;2023-12-20T07:38:46;3.53;;;2.03;;
14686;SDS011;7431;49.440;11.084;2023-12-20T07:41:12;1.53;;;1.43;;
14686;SDS011;7431;49.440;11.084;2023-12-20T07:43:38;1.87;;;1.73;;
14686;SDS011;7431;49.440;11.084;2023-12-20T07:46:04;3.30;;;2.07;;
14686;SDS011;7431;49.440;11.084;2023-12-20T07:48:36;2.13;;;1.90;;
14686;SDS011;7431;49.440;11.084;2023-12-20T07:51:03;3.47;;;2.13;;
14686;SDS011;7431;49.440;11.084;2023-12-20T07:53:29;2.57;;;2.37;;
14686;SDS011;7431;49.440;11.084;2023-12-20T07:55:55;3.17;;;2.70;;
14686;SDS011;7431;49.440;11.084;2023-12-20T07:58:20;2.70;;;2.23;;
14686;SDS011;7431;49.440;11.084;2023-12-20T08:00:46;2.13;;;2.00;;
14686;SDS011;7431;49.440;11.084;2023-12-20T08:03:12;2.40;;;2.20;;
14686;SDS011;7431;49.440;11.084;2023-12-20T08:05:38;2.97;;;2.70;;
14686;SDS011;7431;49.440;11.084;2023-12-20T08:08:05;3.07;;;2.20;;
14686;SDS011;7431;49.440;11.084;2023-12-20T08:10:31;2.70;;;2.50;;
14686;SDS011;7431;49.440;11.084;2023-12-20T08:12:57;4.10;;;2.50;;
14686;SDS011;7431;49.440;11.084;2023-12-20T08:15:22;3.53;;;2.83;;
14686;SDS011;7431;49.440;11.084;2023-12-20T08:17:48;3.77;;;3.30;;
14686;SDS011;7431;49.440;11.084;2023-12-20T08:20:16;6.37;;;3.57;;
14686;SDS011;7431;49.440;11.084;2023-12-20T08:22:41;8.47;;;2.50;;
14686;SDS011;7431;49.440;11.084;2023-12-20T08:25:07;2.30;;;2.07;;
14686;SDS011;7431;49.440;11.084;2023-12-20T08:27:33;2.30;;;2.03;;
14686;SDS011;7431;49.440;11.084;2023-12-20T08:30:02;4.50;;;2.40;;
14686;SDS011;7431;49.440;11.084;2023-12-20T08:32:28;2.80;;;1.83;;
14686;SDS011;7431;49.440;11.084;2023-12-20T08:34:54;2.83;;;2.40;;
14686;SDS011;7431;49.440;11.084;2023-12-20T08:37:19;2.37;;;2.17;;
14686;SDS011;7431;49.440;11.084;2023-12-20T08:39:45;1.90;;;1.80;;
14686;SDS011;7431;49.440;11.084;2023-12-20T08:42:10;1.70;;;1.60;;
14686;SDS011;7431;49.440;11.084;2023-12-20T08:44:36;2.83;;;2.10;;
14686;SDS011;7431;49.440;11.084;2023-12-20T08:47:02;1.83;;;1.73;;
14686;SDS011;7431;49.440;11.084;2023-12-20T08:49:27;2.33;;;2.13;;
14686;SDS011;7431;49.440;11.084;2023-12-20T08:51:53;2.00;;;1.83;;
14686;SDS011;7431;49.440;11.084;2023-12-20T08:54:19;1.90;;;1.70;;
14686;SDS011;7431;49.440;11.084;2023-12-20T08:56:45;2.33;;;1.60;;
14686;SDS011;7431;49.440;11.084;2023-12-20T08:59:11;1.97;;;1.80;;
14686;SDS011;7431;49.440;11.084;2023-12-20T09:01:37;1.80;;;1.70;;
14686;SDS011;7431;49.440;11.084;2023-12-20T09:04:02;1.80;;;1.70;;
14686;SDS011;7431;49.440;11.084;2023-12-20T09:06:28;1.63;;;1.53;;
14686;SDS011;7431;49.440;11.084;2023-12-20T09:08:53;2.63;;;1.70;;
14686;SDS011;7431;49.440;11.084;2023-12-20T09:11:19;1.60;;;1.50;;
14686;SDS011;7431;49.440;11.084;2023-12-20T09:13:45;2.90;;;1.70;;
14686;SDS011;7431;49.440;11.084;2023-12-20T09:16:10;1.80;;;1.70;;
14686;SDS011;7431;49.440;11.084;2023-12-20T09:18:38;1.80;;;1.70;;
14686;SDS011;7431;49.440;11.084;2023-12-20T09:21:03;2.90;;;1.70;;
14686;SDS011;7431;49.440;11.084;2023-12-20T09:23:29;2.53;;;2.13;;
14686;SDS011;7431;49.440;11.084;2023-12-20T09:25:54;2.93;;;2.07;;
14686;SDS011;7431;49.440;11.084;2023-12-20T09:28:20;3.53;;;1.97;;
14686;SDS011;7431;49.440;11.084;2023-12-20T09:30:45;2.60;;;2.10;;
14686;SDS011;7431;49.440;11.084;2023-12-20T09:33:12;2.20;;;1.53;;
14686;SDS011;7431;49.440;11.084;2023-12-20T09:35:39;1.60;;;1.40;;
14686;SDS011;7431;49.440;11.084;2023-12-20T09:38:05;1.90;;;1.80;;
14686;SDS011;7431;49.440;11.084;2023-12-20T09:40:30;1.97;;;1.87;;
14686;SDS011;7431;49.440;11.084;2023-12-20T09:43:08;1.80;;;1.70;;
14686;SDS011;7431;49.440;11.084;2023-12-20T09:45:39;3.43;;;1.80;;
14686;SDS011;7431;49.440;11.084;2023-12-20T09:48:05;1.60;;;1.50;;
14686;SDS011;7431;49.440;11.084;2023-12-20T09:50:33;1.67;;;1.40;;
14686;SDS011;7431;49.440;11.084;2023-12-20T09:52:58;1.73;;;1.50;;
14686;SDS011;7431;49.440;11.084;2023-12-20T09:55:27;2.40;;;1.57;;
14686;SDS011;7431;49.440;11.084;2023-12-20T09:57:55;1.30;;;1.20;;
14686;SDS011;7431;49.440;11.084;2023-12-20T10:00:21;3.43;;;1.70;;
14686;SDS011;7431;49.440;11.084;2023-12-20T10:02:59;3.27;;;1.63;;
14686;SDS011;7431;49.440;11.084;2023-12-20T10:05:26;4.20;;;1.77;;
14686;SDS011;7431;49.440;11.084;2023-12-20T10:07:52;1.67;;;1.47;;
14686;SDS011;7431;49.440;11.084;2023-12-20T10:10:17;1.80;;;1.40;;
14686;SDS011;7431;49.440;11.084;2023-12-20T10:13:01;2.67;;;1.27;;
14686;SDS011;7431;49.440;11.084;2023-12-20T10:15:28;1.60;;;1.50;;
14686;SDS011;7431;49.440;11.084;2023-12-20T10:17:53;1.67;;;1.50;;
14686;SDS011;7431;49.440;11.084;2023-12-20T10:20:19;3.57;;;2.07;;
14686;SDS011;7431;49.440;11.084;2023-12-20T10:22:46;2.13;;;1.50;;
14686;SDS011;7431;49.440;11.084;2023-12-20T10:25:12;1.53;;;1.43;;
14686;SDS011;7431;49.440;11.084;2023-12-20T10:27:38;3.27;;;1.47;;
14686;SDS011;7431;49.440;11.084;2023-12-20T10:30:03;2.27;;;1.70;;
14686;SDS011;7431;49.440;11.084;2023-12-20T10:32:29;1.70;;;1.17;;
14686;SDS011;7431;49.440;11.084;2023-12-20T10:34:56;2.17;;;1.47;;
14686;SDS011;7431;49.440;11.084;2023-12-20T10:37:22;1.40;;;1.30;;
14686;SDS011;7431;49.440;11.084;2023-12-20T10:39:51;3.97;;;1.43;;
14686;SDS011;7431;49.440;11.084;2023-12-20T10:42:21;2.10;;;1.30;;
14686;SDS011;7431;49.440;11.084;2023-12-20T10:44:47;1.50;;;1.30;;
14686;SDS011;7431;49.440;11.084;2023-12-20T10:47:14;1.97;;;1.40;;
14686;SDS011;7431;49.440;11.084;2023-12-20T10:49:40;2.43;;;1.10;;
14686;SDS011;7431;49.440;11.084;2023-12-20T10:52:06;2.37;;;1.20;;
14686;SDS011;7431;49.440;11.084;2023-12-20T10:54:34;3.03;;;1.30;;
14686;SDS011;7431;49.440;11.084;2023-12-20T10:56:59;2.13;;;1.50;;
14686;SDS011;7431;49.440;11.084;2023-12-20T10:59:29;3.23;;;1.60;;
14686;SDS011;7431;49.440;11.084;2023-12-20T11:01:56;3.80;;;1.50;;
14686;SDS011;7431;49.440;11.084;2023-12-20T11:04:31;1.33;;;1.23;;
14686;SDS011;7431;49.440;11.084;2023-12-20T11:09:43;3.97;;;1.37;;
14686;SDS011;7431;49.440;11.084;2023-12-20T11:13:16;2.20;;;1.60;;
14686;SDS011;7431;49.440;11.084;2023-12-20T11:15:21;6.60;;;2.20;;
14686;SDS011;7431;49.440;11.084;2023-12-20T11:17:54;2.37;;;1.40;;
14686;SDS011;7431;49.440;11.084;2023-12-20T11:20:22;3.13;;;1.53;;
14686;SDS011;7431;49.440;11.084;2023-12-20T11:22:54;3.63;;;1.37;;
14686;SDS011;7431;49.440;11.084;2023-12-20T11:25:20;2.17;;;1.27;;
14686;SDS011;7431;49.440;11.084;2023-12-20T11:28:06;3.03;;;1.50;;
14686;SDS011;7431;49.440;11.084;2023-12-20T11:30:49;2.53;;;1.67;;
14686;SDS011;7431;49.440;11.084;2023-12-20T11:33:23;5.70;;;2.30;;
14686;SDS011;7431;49.440;11.084;2023-12-20T11:35:49;4.03;;;1.43;;
14686;SDS011;7431;49.440;11.084;2023-12-20T11:38:16;2.70;;;1.30;;
14686;SDS011;7431;49.440;11.084;2023-12-20T11:40:42;2.90;;;1.50;;
14686;SDS011;7431;49.440;11.084;2023-12-20T11:43:08;3.53;;;1.40;;
14686;SDS011;7431;49.440;11.084;2023-12-20T11:45:34;2.37;;;1.33;;
14686;SDS011;7431;49.440;11.084;2023-12-20T11:48:01;3.07;;;1.93;;
14686;SDS011;7431;49.440;11.084;2023-12-20T11:50:27;1.43;;;1.27;;
14686;SDS011;7431;49.440;11.084;2023-12-20T11:52:54;3.80;;;1.53;;
14686;SDS011;7431;49.440;11.084;2023-12-20T11:55:21;2.73;;;1.83;;
14686;SDS011;7431;49.440;11.084;2023-12-20T11:57:49;2.80;;;1.80;;
14686;SDS011;7431;49.440;11.084;2023-12-20T12:00:15;2.47;;;1.80;;
14686;SDS011;7431;49.440;11.084;2023-12-20T12:02:41;5.67;;;1.60;;
14686;SDS011;7431;49.440;11.084;2023-12-20T12:05:07;3.90;;;1.63;;
14686;SDS011;7431;49.440;11.084;2023-12-20T12:07:34;7.93;;;2.07;;
14686;SDS011;7431;49.440;11.084;2023-12-20T12:10:00;3.27;;;1.90;;
14686;SDS011;7431;49.440;11.084;2023-12-20T12:12:26;3.07;;;1.90;;
14686;SDS011;7431;49.440;11.084;2023-12-20T12:14:52;2.63;;;1.80;;
14686;SDS011;7431;49.440;11.084;2023-12-20T12:17:19;3.43;;;1.73;;
14686;SDS011;7431;49.440;11.084;2023-12-20T12:19:45;4.87;;;1.60;;
14686;SDS011;7431;49.440;11.084;2023-12-20T12:22:14;3.40;;;1.80;;
14686;SDS011;7431;49.440;11.084;2023-12-20T12:24:45;3.27;;;1.73;;
14686;SDS011;7431;49.440;11.084;2023-12-20T12:27:11;3.57;;;1.73;;
14686;SDS011;7431;49.440;11.084;2023-12-20T12:29:38;1.60;;;1.50;;
14686;SDS011;7431;49.440;11.084;2023-12-20T12:32:05;2.77;;;1.77;;
14686;SDS011;7431;49.440;11.084;2023-12-20T12:34:34;3.60;;;1.70;;
14686;SDS011;7431;49.440;11.084;2023-12-20T12:37:00;2.93;;;1.43;;
14686;SDS011;7431;49.440;11.084;2023-12-20T12:39:27;4.13;;;1.60;;
14686;SDS011;7431;49.440;11.084;2023-12-20T12:41:52;2.27;;;1.70;;
14686;SDS011;7431;49.440;11.084;2023-12-20T12:44:19;4.13;;;1.70;;
14686;SDS011;7431;49.440;11.084;2023-12-20T12:46:45;2.30;;;1.50;;
14686;SDS011;7431;49.440;11.084;2023-12-20T12:49:11;3.47;;;1.50;;
14686;SDS011;7431;49.440;11.084;2023-12-20T12:51:37;2.10;;;1.60;;
14686;SDS011;7431;49.440;11.084;2023-12-20T12:54:03;2.97;;;1.77;;
14686;SDS011;7431;49.440;11.084;2023-12-20T12:56:28;3.27;;;1.70;;
14686;SDS011;7431;49.440;11.084;2023-12-20T12:58:54;2.73;;;2.33;;
14686;SDS011;7431;49.440;11.084;2023-12-20T13:01:20;4.00;;;1.70;;
14686;SDS011;7431;49.440;11.084;2023-12-20T13:03:46;2.43;;;1.40;;
14686;SDS011;7431;49.440;11.084;2023-12-20T13:06:12;4.60;;;1.83;;
14686;SDS011;7431;49.440;11.084;2023-12-20T13:08:37;3.47;;;1.80;;
14686;SDS011;7431;49.440;11.084;2023-12-20T13:11:03;7.77;;;2.23;;
14686;SDS011;7431;49.440;11.084;2023-12-20T13:13:29;1.90;;;1.20;;
14686;SDS011;7431;49.440;11.084;2023-12-20T13:15:55;2.00;;;1.17;;
14686;SDS011;7431;49.440;11.084;2023-12-20T13:18:22;2.67;;;1.73;;
14686;SDS011;7431;49.440;11.084;2023-12-20T13:20:48;3.97;;;1.70;;
14686;SDS011;7431;49.440;11.084;2023-12-20T13:23:14;1.40;;;1.30;;
14686;SDS011;7431;49.440;11.084;2023-12-20T13:25:40;1.47;;;1.23;;
14686;SDS011;7431;49.440;11.084;2023-12-20T13:28:06;5.37;;;1.90;;
14686;SDS011;7431;49.440;11.084;2023-12-20T13:30:33;2.20;;;1.90;;
14686;SDS011;7431;49.440;11.084;2023-12-20T13:32:59;2.60;;;1.57;;
14686;SDS011;7431;49.440;11.084;2023-12-20T13:35:24;4.00;;;1.60;;
14686;SDS011;7431;49.440;11.084;2023-12-20T13:37:50;3.90;;;1.60;;
14686;SDS011;7431;49.440;11.084;2023-12-20T13:40:15;2.83;;;1.50;;
14686;SDS011;7431;49.440;11.084;2023-12-20T13:42:41;3.00;;;1.30;;
14686;SDS011;7431;49.440;11.084;2023-12-20T13:45:07;2.73;;;1.40;;
14686;SDS011;7431;49.440;11.084;2023-12-20T13:47:33;2.03;;;1.40;;
14686;SDS011;7431;49.440;11.084;2023-12-20T13:49:59;1.20;;;1.10;;
14686;SDS011;7431;49.440;11.084;2023-12-20T13:52:24;2.07;;;1.47;;
14686;SDS011;7431;49.440;11.084;2023-12-20T13:54:50;3.60;;;1.73;;
14686;SDS011;7431;49.440;11.084;2023-12-20T13:57:15;2.80;;;1.50;;
14686;SDS011;7431;49.440;11.084;2023-12-20T13:59:41;5.30;;;1.43;;
14686;SDS011;7431;49.440;11.084;2023-12-20T14:02:06;4.50;;;1.93;;
14686;SDS011;7431;49.440;11.084;2023-12-20T14:04:32;3.37;;;1.67;;
14686;SDS011;7431;49.440;11.084;2023-12-20T14:06:58;2.33;;;1.23;;
14686;SDS011;7431;49.440;11.084;2023-12-20T14:09:23;4.20;;;1.20;;
14686;SDS011;7431;49.440;11.084;2023-12-20T14:11:49;2.00;;;1.40;;
14686;SDS011;7431;49.440;11.084;2023-12-20T14:14:15;1.60;;;1.33;;
14686;SDS011;7431;49.440;11.084;2023-12-20T14:16:41;1.43;;;1.30;;
14686;SDS011;7431;49.440;11.084;2023-12-20T14:19:09;4.37;;;2.00;;
14686;SDS011;7431;49.440;11.084;2023-12-20T14:21:35;3.33;;;1.80;;
14686;SDS011;7431;49.440;11.084;2023-12-20T14:24:01;4.00;;;2.17;;
14686;SDS011;7431;49.440;11.084;2023-12-20T14:26:28;2.53;;;1.70;;
14686;SDS011;7431;49.440;11.084;2023-12-20T14:28:54;2.77;;;1.53;;
14686;SDS011;7431;49.440;11.084;2023-12-20T14:31:20;1.33;;;1.20;;
14686;SDS011;7431;49.440;11.084;2023-12-20T14:33:46;3.60;;;2.17;;
14686;SDS011;7431;49.440;11.084;2023-12-20T14:36:15;3.47;;;1.50;;
14686;SDS011;7431;49.440;11.084;2023-12-20T14:38:42;3.20;;;1.80;;
14686;SDS011;7431;49.440;11.084;2023-12-20T14:41:08;4.17;;;1.83;;
14686;SDS011;7431;49.440;11.084;2023-12-20T14:43:34;4.60;;;2.17;;
14686;SDS011;7431;49.440;11.084;2023-12-20T14:45:59;1.37;;;1.20;;